sensor_id;sensor_type;location;lat;lon;timestamp;pressure;altitude;pressure_sealevel;temperature
81657;BMP280;71067;51.482;-0.580;2023-12-20T00:00:15;102040.16;;;6.54
81657;BMP280;71067;51.482;-0.580;2023-12-20T00:02:41;102028.13;;;6.54
81657;BMP280;71067;51.482;-0.580;2023-12-20T00:05:10;102038.41;;;6.54
81657;BMP280;71067;51.482;-0.580;2023-12-20T00:07:35;102034.31;;;6.52
81657;BMP280;71067;51.482;-0.580;2023-12-20T00:10:00;102036.66;;;6.55
81657;BMP280;71067;51.482;-0.580;2023-12-20T00:12:26;102034.06;;;6.55
81657;BMP280;71067;51.482;-0.580;2023-12-20T00:14:51;102033.16;;;6.56
81657;BMP280;71067;51.482;-0.580;2023-12-20T00:17:16;102025.44;;;6.56
81657;BMP280;71067;51.482;-0.580;2023-12-20T00:19:42;102016.06;;;6.55
81657;BMP280;71067;51.482;-0.580;2023-12-20T00:22:07;102020.13;;;6.59
81657;BMP280;71067;51.482;-0.580;2023-12-20T00:24:32;102019.19;;;6.60
81657;BMP280;71067;51.482;-0.580;2023-12-20T00:26:58;102026.72;;;6.63
81657;BMP280;71067;51.482;-0.580;2023-12-20T00:29:23;102031.78;;;6.64
81657;BMP280;71067;51.482;-0.580;2023-12-20T00:31:48;102028.38;;;6.64
81657;BMP280;71067;51.482;-0.580;2023-12-20T00:34:14;102028.88;;;6.69
81657;BMP280;71067;51.482;-0.580;2023-12-20T00:36:39;102030.63;;;6.68
81657;BMP280;71067;51.482;-0.580;2023-12-20T00:39:05;102023.72;;;6.69
81657;BMP280;71067;51.482;-0.580;2023-12-20T00:41:31;102037.25;;;6.72
81657;BMP280;71067;51.482;-0.580;2023-12-20T00:43:57;102036.22;;;6.75
81657;BMP280;71067;51.482;-0.580;2023-12-20T00:46:22;102031.16;;;6.73
81657;BMP280;71067;51.482;-0.580;2023-12-20T00:48:48;102028.50;;;6.75
81657;BMP280;71067;51.482;-0.580;2023-12-20T00:51:13;102026.53;;;6.78
81657;BMP280;71067;51.482;-0.580;2023-12-20T00:53:39;102019.78;;;6.77
81657;BMP280;71067;51.482;-0.580;2023-12-20T00:56:04;102010.06;;;6.81
81657;BMP280;71067;51.482;-0.580;2023-12-20T00:58:30;102013.47;;;6.81
81657;BMP280;71067;51.482;-0.580;2023-12-20T01:00:55;102014.28;;;6.82
81657;BMP280;71067;51.482;-0.580;2023-12-20T01:03:20;102011.53;;;6.85
81657;BMP280;71067;51.482;-0.580;2023-12-20T01:05:46;102000.22;;;6.87
81657;BMP280;71067;51.482;-0.580;2023-12-20T01:08:11;102008.00;;;6.86
81657;BMP280;71067;51.482;-0.580;2023-12-20T01:10:37;102003.50;;;6.89
81657;BMP280;71067;51.482;-0.580;2023-12-20T01:13:03;101996.81;;;6.87
81657;BMP280;71067;51.482;-0.580;2023-12-20T01:15:28;102001.34;;;6.96
81657;BMP280;71067;51.482;-0.580;2023-12-20T01:17:54;101992.81;;;6.96
81657;BMP280;71067;51.482;-0.580;2023-12-20T01:20:19;101995.19;;;6.99
81657;BMP280;71067;51.482;-0.580;2023-12-20T01:22:45;101988.25;;;6.99
81657;BMP280;71067;51.482;-0.580;2023-12-20T01:25:11;101979.75;;;6.99
81657;BMP280;71067;51.482;-0.580;2023-12-20T01:27:36;101977.97;;;6.99
81657;BMP280;71067;51.482;-0.580;2023-12-20T01:30:02;101995.25;;;6.97
81657;BMP280;71067;51.482;-0.580;2023-12-20T01:32:27;101997.75;;;6.99
81657;BMP280;71067;51.482;-0.580;2023-12-20T01:34:52;102002.78;;;7.00
81657;BMP280;71067;51.482;-0.580;2023-12-20T01:37:18;102007.03;;;7.01
81657;BMP280;71067;51.482;-0.580;2023-12-20T01:39:43;101994.16;;;7.01
81657;BMP280;71067;51.482;-0.580;2023-12-20T01:42:08;101999.38;;;7.00
81657;BMP280;71067;51.482;-0.580;2023-12-20T01:44:34;101998.78;;;6.96
81657;BMP280;71067;51.482;-0.580;2023-12-20T01:47:01;101993.22;;;7.02
81657;BMP280;71067;51.482;-0.580;2023-12-20T01:49:27;101991.78;;;6.98
81657;BMP280;71067;51.482;-0.580;2023-12-20T01:51:53;101994.53;;;6.95
81657;BMP280;71067;51.482;-0.580;2023-12-20T01:54:19;101991.06;;;6.96
81657;BMP280;71067;51.482;-0.580;2023-12-20T01:56:45;101994.44;;;6.97
81657;BMP280;71067;51.482;-0.580;2023-12-20T01:59:10;101985.16;;;6.94
81657;BMP280;71067;51.482;-0.580;2023-12-20T02:01:36;101983.53;;;6.93
81657;BMP280;71067;51.482;-0.580;2023-12-20T02:04:01;101986.00;;;6.95
81657;BMP280;71067;51.482;-0.580;2023-12-20T02:06:29;101985.16;;;6.94
81657;BMP280;71067;51.482;-0.580;2023-12-20T02:08:57;101982.41;;;6.97
81657;BMP280;71067;51.482;-0.580;2023-12-20T02:11:22;101979.09;;;6.95
81657;BMP280;71067;51.482;-0.580;2023-12-20T02:13:48;101977.53;;;6.93
81657;BMP280;71067;51.482;-0.580;2023-12-20T02:16:13;101974.88;;;6.94
81657;BMP280;71067;51.482;-0.580;2023-12-20T02:18:39;101967.91;;;6.96
81657;BMP280;71067;51.482;-0.580;2023-12-20T02:21:05;101972.28;;;6.94
81657;BMP280;71067;51.482;-0.580;2023-12-20T02:23:31;101970.47;;;6.96
81657;BMP280;71067;51.482;-0.580;2023-12-20T02:25:56;101971.19;;;6.98
81657;BMP280;71067;51.482;-0.580;2023-12-20T02:28:21;101973.75;;;6.98
81657;BMP280;71067;51.482;-0.580;2023-12-20T02:30:47;101967.78;;;6.98
81657;BMP280;71067;51.482;-0.580;2023-12-20T02:33:15;101971.19;;;6.98
81657;BMP280;71067;51.482;-0.580;2023-12-20T02:35:40;101973.75;;;6.98
81657;BMP280;71067;51.482;-0.580;2023-12-20T02:38:06;101971.25;;;6.97
81657;BMP280;71067;51.482;-0.580;2023-12-20T02:40:31;101972.09;;;6.97
81657;BMP280;71067;51.482;-0.580;2023-12-20T02:42:57;101978.28;;;6.95
81657;BMP280;71067;51.482;-0.580;2023-12-20T02:45:22;101981.56;;;6.97
81657;BMP280;71067;51.482;-0.580;2023-12-20T02:47:47;101980.84;;;6.95
81657;BMP280;71067;51.482;-0.580;2023-12-20T02:50:13;101977.16;;;6.99
81657;BMP280;71067;51.482;-0.580;2023-12-20T02:52:38;101974.66;;;6.97
81657;BMP280;71067;51.482;-0.580;2023-12-20T02:55:04;101967.91;;;6.96
81657;BMP280;71067;51.482;-0.580;2023-12-20T02:57:29;101971.38;;;6.95
81657;BMP280;71067;51.482;-0.580;2023-12-20T02:59:54;101981.28;;;7.01
81657;BMP280;71067;51.482;-0.580;2023-12-20T03:02:20;101981.47;;;6.98
81657;BMP280;71067;51.482;-0.580;2023-12-20T03:04:45;101965.41;;;6.95
81657;BMP280;71067;51.482;-0.580;2023-12-20T03:07:10;101971.19;;;6.98
81657;BMP280;71067;51.482;-0.580;2023-12-20T03:09:37;101960.38;;;6.93
81657;BMP280;71067;51.482;-0.580;2023-12-20T03:12:03;101969.63;;;6.96
81657;BMP280;71067;51.482;-0.580;2023-12-20T03:14:28;101971.38;;;6.95
81657;BMP280;71067;51.482;-0.580;2023-12-20T03:16:53;101985.06;;;6.96
81657;BMP280;71067;51.482;-0.580;2023-12-20T03:19:19;101973.94;;;6.95
81657;BMP280;71067;51.482;-0.580;2023-12-20T03:21:44;101980.94;;;6.93
81657;BMP280;71067;51.482;-0.580;2023-12-20T03:24:10;101981.78;;;6.94
81657;BMP280;71067;51.482;-0.580;2023-12-20T03:26:35;101977.66;;;6.91
81657;BMP280;71067;51.482;-0.580;2023-12-20T03:29:00;101985.38;;;6.91
81657;BMP280;71067;51.482;-0.580;2023-12-20T03:31:26;101987.00;;;6.92
81657;BMP280;71067;51.482;-0.580;2023-12-20T03:33:51;101989.81;;;6.89
81657;BMP280;71067;51.482;-0.580;2023-12-20T03:36:18;101988.75;;;6.91
81657;BMP280;71067;51.482;-0.580;2023-12-20T03:38:44;101982.28;;;6.86
81657;BMP280;71067;51.482;-0.580;2023-12-20T03:41:09;101970.72;;;6.79
81657;BMP280;71067;51.482;-0.580;2023-12-20T03:43:35;101989.28;;;6.84
81657;BMP280;71067;51.482;-0.580;2023-12-20T03:46:00;101995.25;;;6.84
81657;BMP280;71067;51.482;-0.580;2023-12-20T03:48:25;101995.16;;;6.86
81657;BMP280;71067;51.482;-0.580;2023-12-20T03:50:51;101989.19;;;6.85
81657;BMP280;71067;51.482;-0.580;2023-12-20T03:53:16;101986.19;;;6.79
81657;BMP280;71067;51.482;-0.580;2023-12-20T03:55:41;101989.19;;;6.85
81657;BMP280;71067;51.482;-0.580;2023-12-20T03:58:07;101976.53;;;6.82
81657;BMP280;71067;51.482;-0.580;2023-12-20T04:00:32;101970.03;;;6.77
81657;BMP280;71067;51.482;-0.580;2023-12-20T04:02:57;101981.25;;;6.76
81657;BMP280;71067;51.482;-0.580;2023-12-20T04:05:23;101979.50;;;6.76
81657;BMP280;71067;51.482;-0.580;2023-12-20T04:07:48;101971.16;;;6.73
81657;BMP280;71067;51.482;-0.580;2023-12-20T04:10:15;101969.59;;;6.70
81657;BMP280;71067;51.482;-0.580;2023-12-20T04:12:40;101981.66;;;6.70
81657;BMP280;71067;51.482;-0.580;2023-12-20T04:15:06;101987.34;;;6.75
81657;BMP280;71067;51.482;-0.580;2023-12-20T04:17:34;101975.56;;;6.71
81657;BMP280;71067;51.482;-0.580;2023-12-20T04:20:00;101964.56;;;6.69
81657;BMP280;71067;51.482;-0.580;2023-12-20T04:22:25;101967.78;;;6.72
81657;BMP280;71067;51.482;-0.580;2023-12-20T04:24:50;101952.41;;;6.71
81657;BMP280;71067;51.482;-0.580;2023-12-20T04:27:16;101968.38;;;6.76
81657;BMP280;71067;51.482;-0.580;2023-12-20T04:29:41;101967.47;;;6.77
81657;BMP280;71067;51.482;-0.580;2023-12-20T04:32:06;101975.50;;;6.72
81657;BMP280;71067;51.482;-0.580;2023-12-20T04:34:31;101966.94;;;6.72
81657;BMP280;71067;51.482;-0.580;2023-12-20T04:36:57;101962.63;;;6.72
81657;BMP280;71067;51.482;-0.580;2023-12-20T04:39:22;101961.16;;;6.68
81657;BMP280;71067;51.482;-0.580;2023-12-20T04:41:48;101963.66;;;6.70
81657;BMP280;71067;51.482;-0.580;2023-12-20T04:44:14;101963.44;;;6.73
81657;BMP280;71067;51.482;-0.580;2023-12-20T04:46:39;101963.53;;;6.71
81657;BMP280;71067;51.482;-0.580;2023-12-20T04:49:05;101964.25;;;6.73
81657;BMP280;71067;51.482;-0.580;2023-12-20T04:51:33;101964.19;;;6.75
81657;BMP280;71067;51.482;-0.580;2023-12-20T04:53:58;101973.53;;;6.76
81657;BMP280;71067;51.482;-0.580;2023-12-20T04:56:24;101961.50;;;6.76
81657;BMP280;71067;51.482;-0.580;2023-12-20T04:58:49;101969.13;;;6.78
81657;BMP280;71067;51.482;-0.580;2023-12-20T05:01:14;101968.31;;;6.77
81657;BMP280;71067;51.482;-0.580;2023-12-20T05:03:40;101974.47;;;6.75
81657;BMP280;71067;51.482;-0.580;2023-12-20T05:06:05;101979.16;;;6.81
81657;BMP280;71067;51.482;-0.580;2023-12-20T05:08:30;101979.81;;;6.84
81657;BMP280;71067;51.482;-0.580;2023-12-20T05:10:56;101975.50;;;6.85
81657;BMP280;71067;51.482;-0.580;2023-12-20T05:13:21;101978.06;;;6.85
81657;BMP280;71067;51.482;-0.580;2023-12-20T05:15:47;101979.63;;;6.87
81657;BMP280;71067;51.482;-0.580;2023-12-20T05:18:13;101973.66;;;6.87
81657;BMP280;71067;51.482;-0.580;2023-12-20T05:20:39;101963.34;;;6.87
81657;BMP280;71067;51.482;-0.580;2023-12-20T05:23:04;101964.78;;;6.91
81657;BMP280;71067;51.482;-0.580;2023-12-20T05:25:30;101952.53;;;6.95
81657;BMP280;71067;51.482;-0.580;2023-12-20T05:27:55;101956.56;;;6.99
81657;BMP280;71067;51.482;-0.580;2023-12-20T05:30:21;101952.97;;;7.01
81657;BMP280;71067;51.482;-0.580;2023-12-20T05:32:46;101944.19;;;7.04
81657;BMP280;71067;51.482;-0.580;2023-12-20T05:35:12;101941.72;;;7.02
81657;BMP280;71067;51.482;-0.580;2023-12-20T05:37:37;101944.00;;;7.07
81657;BMP280;71067;51.482;-0.580;2023-12-20T05:40:02;101948.72;;;7.13
81657;BMP280;71067;51.482;-0.580;2023-12-20T05:42:28;101936.69;;;7.13
81657;BMP280;71067;51.482;-0.580;2023-12-20T05:44:54;101941.84;;;7.13
81657;BMP280;71067;51.482;-0.580;2023-12-20T05:47:19;101933.28;;;7.13
81657;BMP280;71067;51.482;-0.580;2023-12-20T05:49:44;101923.81;;;7.13
81657;BMP280;71067;51.482;-0.580;2023-12-20T05:52:10;101928.31;;;7.10
81657;BMP280;71067;51.482;-0.580;2023-12-20T05:54:35;101927.06;;;7.15
81657;BMP280;71067;51.482;-0.580;2023-12-20T05:57:01;101921.22;;;7.13
81657;BMP280;71067;51.482;-0.580;2023-12-20T05:59:26;101917.81;;;7.13
81657;BMP280;71067;51.482;-0.580;2023-12-20T06:01:52;101923.56;;;7.16
81657;BMP280;71067;51.482;-0.580;2023-12-20T06:04:17;101931.31;;;7.16
81657;BMP280;71067;51.482;-0.580;2023-12-20T06:06:43;101932.03;;;7.18
81657;BMP280;71067;51.482;-0.580;2023-12-20T06:09:09;101929.44;;;7.18
81657;BMP280;71067;51.482;-0.580;2023-12-20T06:11:34;101927.06;;;7.15
81657;BMP280;71067;51.482;-0.580;2023-12-20T06:14:00;101935.22;;;7.22
81657;BMP280;71067;51.482;-0.580;2023-12-20T06:16:25;101930.38;;;7.17
81657;BMP280;71067;51.482;-0.580;2023-12-20T06:18:50;101923.06;;;7.24
81657;BMP280;71067;51.482;-0.580;2023-12-20T06:21:16;101923.19;;;7.22
81657;BMP280;71067;51.482;-0.580;2023-12-20T06:23:41;101926.47;;;7.24
81657;BMP280;71067;51.482;-0.580;2023-12-20T06:26:07;101921.31;;;7.24
81657;BMP280;71067;51.482;-0.580;2023-12-20T06:28:32;101921.53;;;7.21
81657;BMP280;71067;51.482;-0.580;2023-12-20T06:30:58;101921.69;;;7.31
81657;BMP280;71067;51.482;-0.580;2023-12-20T06:33:24;101919.03;;;7.32
81657;BMP280;71067;51.482;-0.580;2023-12-20T06:35:49;101919.75;;;7.34
81657;BMP280;71067;51.482;-0.580;2023-12-20T06:38:15;101924.06;;;7.34
81657;BMP280;71067;51.482;-0.580;2023-12-20T06:40:40;101918.91;;;7.34
81657;BMP280;71067;51.482;-0.580;2023-12-20T06:43:05;101932.81;;;7.31
81657;BMP280;71067;51.482;-0.580;2023-12-20T06:45:32;101934.50;;;7.32
81657;BMP280;71067;51.482;-0.580;2023-12-20T06:47:57;101922.53;;;7.31
81657;BMP280;71067;51.482;-0.580;2023-12-20T06:50:23;101913.97;;;7.31
81657;BMP280;71067;51.482;-0.580;2023-12-20T06:52:49;101905.44;;;7.30
81657;BMP280;71067;51.482;-0.580;2023-12-20T06:55:14;101917.81;;;7.38
81657;BMP280;71067;51.482;-0.580;2023-12-20T06:57:39;101910.16;;;7.36
81657;BMP280;71067;51.482;-0.580;2023-12-20T07:00:05;101910.16;;;7.36
81657;BMP280;71067;51.482;-0.580;2023-12-20T07:02:31;101914.41;;;7.37
81657;BMP280;71067;51.482;-0.580;2023-12-20T07:04:56;101914.41;;;7.37
81657;BMP280;71067;51.482;-0.580;2023-12-20T07:07:22;101916.75;;;7.40
81657;BMP280;71067;51.482;-0.580;2023-12-20T07:09:49;101909.00;;;7.40
81657;BMP280;71067;51.482;-0.580;2023-12-20T07:12:14;101901.78;;;7.45
81657;BMP280;71067;51.482;-0.580;2023-12-20T07:14:40;101913.28;;;7.52
81657;BMP280;71067;51.482;-0.580;2023-12-20T07:17:06;101894.84;;;7.58
81657;BMP280;71067;51.482;-0.580;2023-12-20T07:19:37;101893.47;;;7.65
81657;BMP280;71067;51.482;-0.580;2023-12-20T07:22:02;101889.50;;;7.72
81657;BMP280;71067;51.482;-0.580;2023-12-20T07:24:28;101889.91;;;7.79
81657;BMP280;71067;51.482;-0.580;2023-12-20T07:26:53;101880.22;;;7.83
81657;BMP280;71067;51.482;-0.580;2023-12-20T07:29:18;101874.91;;;7.84
81657;BMP280;71067;51.482;-0.580;2023-12-20T07:31:44;101864.41;;;7.87
81657;BMP280;71067;51.482;-0.580;2023-12-20T07:34:09;101863.34;;;7.90
81657;BMP280;71067;51.482;-0.580;2023-12-20T07:36:35;101858.00;;;7.93
81657;BMP280;71067;51.482;-0.580;2023-12-20T07:39:00;101858.78;;;7.93
81657;BMP280;71067;51.482;-0.580;2023-12-20T07:41:26;101868.84;;;7.96
81657;BMP280;71067;51.482;-0.580;2023-12-20T07:43:52;101886.19;;;7.94
81657;BMP280;71067;51.482;-0.580;2023-12-20T07:46:18;101898.16;;;7.95
81657;BMP280;71067;51.482;-0.580;2023-12-20T07:48:47;101902.28;;;7.98
81657;BMP280;71067;51.482;-0.580;2023-12-20T07:51:13;101895.88;;;8.03
81657;BMP280;71067;51.482;-0.580;2023-12-20T07:53:38;101894.81;;;8.06
81657;BMP280;71067;51.482;-0.580;2023-12-20T07:56:13;101894.94;;;8.04
81657;BMP280;71067;51.482;-0.580;2023-12-20T07:58:39;101890.38;;;8.08
81657;BMP280;71067;51.482;-0.580;2023-12-20T08:01:04;101894.22;;;8.02
81657;BMP280;71067;51.482;-0.580;2023-12-20T08:03:29;101915.13;;;8.10
81657;BMP280;71067;51.482;-0.580;2023-12-20T08:05:55;101924.59;;;8.10
81657;BMP280;71067;51.482;-0.580;2023-12-20T08:08:21;101921.81;;;8.13
81657;BMP280;71067;51.482;-0.580;2023-12-20T08:10:47;101913.72;;;8.17
81657;BMP280;71067;51.482;-0.580;2023-12-20T08:13:12;101929.09;;;8.19
81657;BMP280;71067;51.482;-0.580;2023-12-20T08:15:37;101929.19;;;8.17
81657;BMP280;71067;51.482;-0.580;2023-12-20T08:18:03;101940.97;;;8.21
81657;BMP280;71067;51.482;-0.580;2023-12-20T08:20:28;101938.47;;;8.20
81657;BMP280;71067;51.482;-0.580;2023-12-20T08:22:53;101938.16;;;8.24
81657;BMP280;71067;51.482;-0.580;2023-12-20T08:25:19;101921.16;;;8.22
81657;BMP280;71067;51.482;-0.580;2023-12-20T08:27:44;101923.47;;;8.25
81657;BMP280;71067;51.482;-0.580;2023-12-20T08:30:10;101931.69;;;8.30
81657;BMP280;71067;51.482;-0.580;2023-12-20T08:32:35;101922.41;;;8.27
81657;BMP280;71067;51.482;-0.580;2023-12-20T08:35:00;101930.66;;;8.32
81657;BMP280;71067;51.482;-0.580;2023-12-20T08:37:26;101939.81;;;8.36
81657;BMP280;71067;51.482;-0.580;2023-12-20T08:39:51;101936.56;;;8.34
81657;BMP280;71067;51.482;-0.580;2023-12-20T08:42:17;101940.63;;;8.37
81657;BMP280;71067;51.482;-0.580;2023-12-20T08:44:42;101929.50;;;8.36
81657;BMP280;71067;51.482;-0.580;2023-12-20T08:47:08;101923.28;;;8.39
81657;BMP280;71067;51.482;-0.580;2023-12-20T08:49:33;101927.41;;;8.41
81657;BMP280;71067;51.482;-0.580;2023-12-20T08:51:59;101930.22;;;8.49
81657;BMP280;71067;51.482;-0.580;2023-12-20T08:54:24;101930.09;;;8.51
81657;BMP280;71067;51.482;-0.580;2023-12-20T08:56:49;101918.41;;;8.58
81657;BMP280;71067;51.482;-0.580;2023-12-20T08:59:15;101927.34;;;8.65
81657;BMP280;71067;51.482;-0.580;2023-12-20T09:01:40;101918.31;;;8.71
81657;BMP280;71067;51.482;-0.580;2023-12-20T09:04:06;101914.41;;;8.76
81657;BMP280;71067;51.482;-0.580;2023-12-20T09:06:31;101916.53;;;8.82
81657;BMP280;71067;51.482;-0.580;2023-12-20T09:08:57;101920.66;;;8.85
81657;BMP280;71067;51.482;-0.580;2023-12-20T09:11:22;101928.16;;;8.88
81657;BMP280;71067;51.482;-0.580;2023-12-20T09:13:47;101928.75;;;8.91
81657;BMP280;71067;51.482;-0.580;2023-12-20T09:16:13;101925.13;;;8.94
81657;BMP280;71067;51.482;-0.580;2023-12-20T09:18:41;101924.75;;;8.98
81657;BMP280;71067;51.482;-0.580;2023-12-20T09:21:06;101919.28;;;9.03
81657;BMP280;71067;51.482;-0.580;2023-12-20T09:23:31;101931.69;;;9.09
81657;BMP280;71067;51.482;-0.580;2023-12-20T09:25:57;101931.44;;;9.12
81657;BMP280;71067;51.482;-0.580;2023-12-20T09:28:22;101931.44;;;9.23
81657;BMP280;71067;51.482;-0.580;2023-12-20T09:30:47;101920.03;;;9.25
81657;BMP280;71067;51.482;-0.580;2023-12-20T09:33:13;101922.63;;;9.37
81657;BMP280;71067;51.482;-0.580;2023-12-20T09:35:41;101940.19;;;9.43
81657;BMP280;71067;51.482;-0.580;2023-12-20T09:38:07;101941.16;;;9.42
81657;BMP280;71067;51.482;-0.580;2023-12-20T09:40:32;101937.97;;;9.49
81657;BMP280;71067;51.482;-0.580;2023-12-20T09:43:04;101944.88;;;9.60
81657;BMP280;71067;51.482;-0.580;2023-12-20T09:45:34;101932.63;;;9.62
81657;BMP280;71067;51.482;-0.580;2023-12-20T09:48:00;101942.97;;;9.62
81657;BMP280;71067;51.482;-0.580;2023-12-20T09:50:25;101948.75;;;9.65
81657;BMP280;71067;51.482;-0.580;2023-12-20T09:52:53;101936.53;;;9.67
81657;BMP280;71067;51.482;-0.580;2023-12-20T09:55:19;101930.53;;;9.67
81657;BMP280;71067;51.482;-0.580;2023-12-20T09:57:46;101930.13;;;9.71
81657;BMP280;71067;51.482;-0.580;2023-12-20T10:00:12;101922.50;;;9.70
81657;BMP280;71067;51.482;-0.580;2023-12-20T10:02:42;101917.19;;;9.71
81657;BMP280;71067;51.482;-0.580;2023-12-20T10:05:16;101918.16;;;9.70
81657;BMP280;71067;51.482;-0.580;2023-12-20T10:07:41;101922.03;;;9.76
81657;BMP280;71067;51.482;-0.580;2023-12-20T10:10:07;101923.41;;;9.80
81657;BMP280;71067;51.482;-0.580;2023-12-20T10:12:34;101914.72;;;9.81
81657;BMP280;71067;51.482;-0.580;2023-12-20T10:14:59;101903.56;;;9.80
81657;BMP280;71067;51.482;-0.580;2023-12-20T10:17:27;101908.50;;;9.83
81657;BMP280;71067;51.482;-0.580;2023-12-20T10:19:54;101913.50;;;9.85
81657;BMP280;71067;51.482;-0.580;2023-12-20T10:22:19;101926.19;;;9.88
81657;BMP280;71067;51.482;-0.580;2023-12-20T10:24:45;101909.97;;;9.86
81657;BMP280;71067;51.482;-0.580;2023-12-20T10:27:11;101921.50;;;9.93
81657;BMP280;71067;51.482;-0.580;2023-12-20T10:29:37;101923.13;;;9.94
81657;BMP280;71067;51.482;-0.580;2023-12-20T10:32:23;101917.56;;;9.98
81657;BMP280;71067;51.482;-0.580;2023-12-20T10:34:49;101913.00;;;10.02
81657;BMP280;71067;51.482;-0.580;2023-12-20T10:37:15;101913.66;;;10.04
81657;BMP280;71067;51.482;-0.580;2023-12-20T10:39:42;101916.00;;;10.07
81657;BMP280;71067;51.482;-0.580;2023-12-20T10:42:09;101912.09;;;10.12
81657;BMP280;71067;51.482;-0.580;2023-12-20T10:44:36;101899.03;;;10.14
81657;BMP280;71067;51.482;-0.580;2023-12-20T10:47:02;101892.78;;;10.16
81657;BMP280;71067;51.482;-0.580;2023-12-20T10:49:30;101904.78;;;10.18
81657;BMP280;71067;51.482;-0.580;2023-12-20T10:51:56;101898.38;;;10.22
81657;BMP280;71067;51.482;-0.580;2023-12-20T10:54:22;101889.94;;;10.19
81657;BMP280;71067;51.482;-0.580;2023-12-20T10:56:49;101879.19;;;10.24
81657;BMP280;71067;51.482;-0.580;2023-12-20T10:59:19;101884.09;;;10.27
81657;BMP280;71067;51.482;-0.580;2023-12-20T11:01:45;101873.38;;;10.32
81657;BMP280;71067;51.482;-0.580;2023-12-20T11:04:15;101872.69;;;10.30
81657;BMP280;71067;51.482;-0.580;2023-12-20T11:06:49;101845.16;;;10.29
81657;BMP280;71067;51.482;-0.580;2023-12-20T11:09:24;101848.44;;;10.31
81657;BMP280;71067;51.482;-0.580;2023-12-20T11:17:08;101830.50;;;10.39
81657;BMP280;71067;51.482;-0.580;2023-12-20T11:19:43;101843.56;;;10.37
81657;BMP280;71067;51.482;-0.580;2023-12-20T11:22:29;101828.47;;;10.42
81657;BMP280;71067;51.482;-0.580;2023-12-20T11:24:58;101836.38;;;10.41
81657;BMP280;71067;51.482;-0.580;2023-12-20T11:27:24;101828.34;;;10.44
81657;BMP280;71067;51.482;-0.580;2023-12-20T11:29:53;101824.78;;;10.45
81657;BMP280;71067;51.482;-0.580;2023-12-20T11:32:28;101817.59;;;10.48
81657;BMP280;71067;51.482;-0.580;2023-12-20T11:37:40;101819.78;;;10.53
81657;BMP280;71067;51.482;-0.580;2023-12-20T11:40:14;101828.13;;;10.56
81657;BMP280;71067;51.482;-0.580;2023-12-20T11:42:41;101804.69;;;10.58
81657;BMP280;71067;51.482;-0.580;2023-12-20T11:45:11;101802.63;;;10.61
81657;BMP280;71067;51.482;-0.580;2023-12-20T11:47:36;101791.34;;;10.62
81657;BMP280;71067;51.482;-0.580;2023-12-20T11:50:02;101784.13;;;10.66
81657;BMP280;71067;51.482;-0.580;2023-12-20T11:52:29;101763.53;;;10.64
81657;BMP280;71067;51.482;-0.580;2023-12-20T11:54:55;101752.22;;;10.65
81657;BMP280;71067;51.482;-0.580;2023-12-20T11:57:20;101759.06;;;10.66
81657;BMP280;71067;51.482;-0.580;2023-12-20T11:59:46;101748.94;;;10.63
81657;BMP280;71067;51.482;-0.580;2023-12-20T12:02:12;101745.25;;;10.56
81657;BMP280;71067;51.482;-0.580;2023-12-20T12:04:37;101757.13;;;10.59
81657;BMP280;71067;51.482;-0.580;2023-12-20T12:07:02;101759.84;;;10.57
81657;BMP280;71067;51.482;-0.580;2023-12-20T12:09:28;101762.69;;;10.54
81657;BMP280;71067;51.482;-0.580;2023-12-20T12:11:54;101752.34;;;10.54
81657;BMP280;71067;51.482;-0.580;2023-12-20T12:14:19;101753.72;;;10.58
81657;BMP280;71067;51.482;-0.580;2023-12-20T12:16:46;101748.84;;;10.65
81657;BMP280;71067;51.482;-0.580;2023-12-20T12:19:21;101744.06;;;10.70
81657;BMP280;71067;51.482;-0.580;2023-12-20T12:21:47;101740.38;;;10.72
81657;BMP280;71067;51.482;-0.580;2023-12-20T12:24:12;101730.44;;;10.77
81657;BMP280;71067;51.482;-0.580;2023-12-20T12:26:38;101715.56;;;10.79
81657;BMP280;71067;51.482;-0.580;2023-12-20T12:29:03;101709.84;;;10.85
81657;BMP280;71067;51.482;-0.580;2023-12-20T12:31:28;101708.34;;;10.92
81657;BMP280;71067;51.482;-0.580;2023-12-20T12:33:55;101719.53;;;11.02
81657;BMP280;71067;51.482;-0.580;2023-12-20T12:36:21;101704.22;;;10.99
81657;BMP280;71067;51.482;-0.580;2023-12-20T12:38:47;101710.94;;;11.12
81657;BMP280;71067;51.482;-0.580;2023-12-20T12:41:15;101702.06;;;11.14
81657;BMP280;71067;51.482;-0.580;2023-12-20T12:43:41;101710.94;;;11.21
81657;BMP280;71067;51.482;-0.580;2023-12-20T12:46:07;101700.25;;;11.24
81657;BMP280;71067;51.482;-0.580;2023-12-20T12:48:32;101706.13;;;11.26
81657;BMP280;71067;51.482;-0.580;2023-12-20T12:50:58;101703.09;;;11.31
81657;BMP280;71067;51.482;-0.580;2023-12-20T12:53:25;101691.53;;;11.35
81657;BMP280;71067;51.482;-0.580;2023-12-20T12:55:51;101691.91;;;11.40
81657;BMP280;71067;51.482;-0.580;2023-12-20T12:58:17;101692.84;;;11.39
81657;BMP280;71067;51.482;-0.580;2023-12-20T13:00:42;101690.13;;;11.40
81657;BMP280;71067;51.482;-0.580;2023-12-20T13:03:08;101691.63;;;11.43
81657;BMP280;71067;51.482;-0.580;2023-12-20T13:05:33;101694.22;;;11.43
81657;BMP280;71067;51.482;-0.580;2023-12-20T13:07:59;101671.84;;;11.42
81657;BMP280;71067;51.482;-0.580;2023-12-20T13:10:24;101682.22;;;11.42
81657;BMP280;71067;51.482;-0.580;2023-12-20T13:12:49;101683.81;;;11.52
81657;BMP280;71067;51.482;-0.580;2023-12-20T13:15:14;101680.78;;;11.57
81657;BMP280;71067;51.482;-0.580;2023-12-20T13:17:40;101670.31;;;11.58
81657;BMP280;71067;51.482;-0.580;2023-12-20T13:20:06;101668.91;;;11.64
81657;BMP280;71067;51.482;-0.580;2023-12-20T13:22:32;101665.88;;;11.68
81657;BMP280;71067;51.482;-0.580;2023-12-20T13:24:57;101667.63;;;11.68
81657;BMP280;71067;51.482;-0.580;2023-12-20T13:27:22;101661.41;;;11.61
81657;BMP280;71067;51.482;-0.580;2023-12-20T13:29:49;101657.25;;;11.68
81657;BMP280;71067;51.482;-0.580;2023-12-20T13:32:14;101647.06;;;11.66
81657;BMP280;71067;51.482;-0.580;2023-12-20T13:34:39;101645.56;;;11.64
81657;BMP280;71067;51.482;-0.580;2023-12-20T13:37:04;101637.78;;;11.64
81657;BMP280;71067;51.482;-0.580;2023-12-20T13:39:30;101626.69;;;11.62
81657;BMP280;71067;51.482;-0.580;2023-12-20T13:41:56;101608.88;;;11.59
81657;BMP280;71067;51.482;-0.580;2023-12-20T13:44:22;101599.44;;;11.58
81657;BMP280;71067;51.482;-0.580;2023-12-20T13:46:47;101573.66;;;11.56
81657;BMP280;71067;51.482;-0.580;2023-12-20T13:49:14;101563.97;;;11.58
81657;BMP280;71067;51.482;-0.580;2023-12-20T13:51:40;101542.25;;;11.59
81657;BMP280;71067;51.482;-0.580;2023-12-20T13:54:05;101549.88;;;11.61